Time;durP1;ratioP1;P1;durP2;ratioP2;P2;SDS_P1;SDS_P2;PMS_P1;PMS_P2;Temp;Humidity;BMP_temperature;BMP_pressure;BME280_temperature;BME280_humidity;BME280_pressure;Samples;Min_cycle;Max_cycle;Signal;HPM_P1;HPM_P2
2022/01/22 19:42:38;;;;;;;;;178.25;165.00;;;;;5.92;70.22;102864.22;5145125;27;45473;-58
2022/01/22 19:45:09;;;;;;;;;57.25;45.50;;;;;6.18;69.25;102870.00;5101341;27;45564;-56
2022/01/22 19:47:35;;;;;;;;;53.50;44.25;;;;;6.32;68.88;102869.38;5112870;27;45401;-54
2022/01/22 19:50:02;;;;;;;;;54.25;41.50;;;;;6.41;68.29;102859.06;5111299;27;45644;-55
2022/01/22 19:52:27;;;;;;;;;49.75;42.25;;;;;6.51;68.72;102865.38;5106130;27;48129;-52
2022/01/22 19:54:53;;;;;;;;;47.25;42.00;;;;;6.56;67.85;102856.75;5093997;27;45473;-55
2022/01/22 19:57:19;;;;;;;;;49.25;41.00;;;;;6.68;67.67;102855.19;5113141;27;45524;-56
2022/01/22 19:59:45;;;;;;;;;51.75;45.25;;;;;6.78;67.22;102863.22;5109850;27;45523;-56
2022/01/22 20:02:14;;;;;;;;;56.75;46.50;;;;;6.85;67.37;102862.47;5100482;27;45571;-56
2022/01/22 20:04:45;;;;;;;;;48.00;42.75;;;;;6.86;67.23;102852.88;5073401;27;45543;-56
2022/01/22 20:07:10;;;;;;;;;57.75;45.75;;;;;6.93;67.04;102860.00;5096089;27;45472;-56
2022/01/22 20:09:36;;;;;;;;;47.75;41.50;;;;;7.04;66.97;102873.25;5111913;27;45597;-54
2022/01/22 20:12:02;;;;;;;;;53.25;45.25;;;;;7.04;66.73;102879.34;5089802;27;47833;-60
2022/01/22 20:14:28;;;;;;;;;53.50;44.25;;;;;7.08;66.62;102872.41;5092742;27;45433;-55
2022/01/22 20:16:53;;;;;;;;;57.50;48.00;;;;;7.14;66.23;102879.47;5112568;27;45433;-54
2022/01/22 20:19:18;;;;;;;;;61.25;49.75;;;;;7.17;66.08;102885.63;5094190;27;45586;-52
2022/01/22 20:21:44;;;;;;;;;57.00;44.75;;;;;7.17;65.25;102879.53;5104153;27;46849;-54
2022/01/22 20:24:10;;;;;;;;;57.25;46.50;;;;;7.17;66.06;102874.28;5101946;27;45337;-52
2022/01/22 20:26:36;;;;;;;;;53.75;45.00;;;;;7.14;66.05;102875.13;5091598;27;45343;-52
2022/01/22 20:29:03;;;;;;;;;52.50;43.75;;;;;7.10;65.59;102870.72;5091947;27;45390;-55
2022/01/22 20:31:28;;;;;;;;;61.00;49.50;;;;;7.13;66.00;102885.59;5091694;27;46331;-55
2022/01/22 20:33:53;;;;;;;;;49.75;41.75;;;;;7.14;65.98;102882.09;5092783;27;45372;-55
2022/01/22 20:36:19;;;;;;;;;58.50;47.50;;;;;7.08;66.04;102875.91;5103406;27;45440;-54
2022/01/22 20:38:45;;;;;;;;;58.50;47.75;;;;;7.11;66.04;102867.22;5107578;27;45704;-53
2022/01/22 20:41:15;;;;;;;;;49.25;42.75;;;;;7.22;65.79;102875.25;5091304;27;45493;-53
2022/01/22 20:43:43;;;;;;;;;62.25;49.75;;;;;7.22;65.71;102870.00;5098249;27;45524;-55
2022/01/22 20:46:10;;;;;;;;;52.75;45.00;;;;;7.24;65.61;102865.69;5108128;27;45503;-53
2022/01/22 20:48:36;;;;;;;;;64.75;50.00;;;;;7.20;65.84;102858.63;5111960;27;45661;-53
2022/01/22 20:51:02;;;;;;;;;64.75;52.00;;;;;7.17;65.95;102859.47;5102731;27;45365;-56
2022/01/22 20:53:28;;;;;;;;;56.75;46.25;;;;;7.20;66.00;102859.53;5078843;27;45431;-56
2022/01/22 20:55:54;;;;;;;;;62.50;48.00;;;;;7.22;65.45;102857.81;5077820;27;45417;-54
2022/01/22 20:58:32;;;;;;;;;58.50;47.75;;;;;7.22;65.38;102855.19;5080129;27;45365;-56
2022/01/22 21:00:59;;;;;;;;;57.00;46.25;;;;;7.27;65.95;102853.50;5075064;27;48020;-56
2022/01/22 21:03:26;;;;;;;;;58.75;46.25;;;;;7.24;65.03;102852.59;5085891;27;45384;-54
2022/01/22 21:05:52;;;;;;;;;58.00;48.75;;;;;7.16;65.53;102838.53;5086754;27;45584;-55
2022/01/22 21:08:20;;;;;;;;;212.25;200.25;;;;;7.20;65.76;102848.16;5093374;27;47138;-58
2022/01/22 21:10:46;;;;;;;;;142.67;128.33;;;;;7.18;65.41;102850.78;5076036;27;45621;-57
2022/01/22 21:13:13;;;;;;;;;60.25;49.50;;;;;7.22;65.50;102844.72;5087623;27;45394;-57
2022/01/22 21:15:39;;;;;;;;;59.50;48.00;;;;;7.22;65.74;102852.56;5096350;27;45511;-53
2022/01/22 21:18:04;;;;;;;;;64.00;51.00;;;;;7.25;66.12;102851.72;5098679;27;45580;-57
2022/01/22 21:20:30;;;;;;;;;57.75;47.50;;;;;7.22;65.31;102851.69;5083892;27;46037;-55
2022/01/22 21:22:55;;;;;;;;;58.25;48.00;;;;;7.16;65.40;102846.38;5085644;27;45458;-56
2022/01/22 21:25:20;;;;;;;;;58.50;46.50;;;;;7.16;65.35;102849.88;5078418;27;45512;-55
2022/01/22 21:27:46;;;;;;;;;55.00;41.00;;;;;7.11;65.89;102848.91;5077539;28;45402;-52
2022/01/22 21:30:12;;;;;;;;;64.25;49.75;;;;;7.11;66.17;102853.28;5077435;28;46427;-54
2022/01/22 21:32:39;;;;;;;;;57.75;47.75;;;;;7.12;66.11;102841.94;5058818;28;45459;-54
2022/01/22 21:35:05;;;;;;;;;61.50;49.75;;;;;7.20;65.19;102856.91;5077917;27;45507;-55
2022/01/22 21:39:56;;;;;;;;;49.75;43.75;;;;;7.23;65.96;102853.47;5077211;27;45750;-50
2022/01/22 21:42:25;;;;;;;;;57.25;47.00;;;;;7.23;65.56;102850.84;5077202;28;45428;-54
2022/01/22 21:44:52;;;;;;;;;56.25;43.75;;;;;7.19;65.24;102857.75;5077442;27;45388;-54
2022/01/22 21:47:18;;;;;;;;;54.75;44.00;;;;;7.22;65.57;102862.16;5077505;28;45532;-50
2022/01/22 21:49:45;;;;;;;;;65.50;51.00;;;;;7.24;65.38;102858.72;5077535;27;46188;-52
2022/01/22 21:52:11;;;;;;;;;54.50;43.50;;;;;7.23;65.93;102856.97;5077434;28;45429;-55
2022/01/22 21:54:37;;;;;;;;;54.00;44.00;;;;;7.24;64.97;102853.47;5076195;28;45438;-55
2022/01/22 21:57:03;;;;;;;;;48.25;42.00;;;;;7.27;65.46;102860.50;5059076;28;45664;-55
2022/01/22 21:59:28;;;;;;;;;47.75;40.75;;;;;7.27;65.49;102860.50;5077369;27;47874;-55
2022/01/22 22:01:54;;;;;;;;;52.25;44.00;;;;;7.28;65.29;102854.38;5077134;27;45395;-53
2022/01/22 22:04:19;;;;;;;;;52.25;43.75;;;;;7.29;65.17;102851.81;5075731;28;45512;-56
2022/01/22 22:06:45;;;;;;;;;51.00;44.25;;;;;7.29;64.88;102848.31;5077323;28;45521;-54
2022/01/22 22:09:13;;;;;;;;;55.25;44.00;;;;;7.32;64.92;102860.56;5077343;28;45628;-51
2022/01/22 22:11:39;;;;;;;;;49.00;42.25;;;;;7.30;65.59;102848.31;5077166;28;45455;-53
2022/01/22 22:14:07;;;;;;;;;54.50;44.00;;;;;7.26;65.22;102849.16;5077166;28;45488;-55
2022/01/22 22:16:33;;;;;;;;;48.00;42.00;;;;;7.24;65.73;102845.63;5076529;28;45423;-57
2022/01/22 22:18:58;;;;;;;;;54.25;45.50;;;;;7.23;65.02;102853.47;5076917;28;45366;-55
2022/01/22 22:21:23;;;;;;;;;52.75;45.00;;;;;7.21;66.01;102850.81;5076773;28;45398;-57
2022/01/22 22:23:50;;;;;;;;;57.25;48.25;;;;;7.22;65.60;102847.34;5076996;27;45296;-53
2022/01/22 22:26:16;;;;;;;;;56.75;44.00;;;;;7.22;65.18;102849.94;5076597;27;45558;-56
2022/01/22 22:28:42;;;;;;;;;52.00;43.75;;;;;7.19;65.70;102851.66;5076445;27;46481;-58
2022/01/22 22:31:09;;;;;;;;;53.25;43.50;;;;;7.16;65.84;102847.25;5076905;28;45440;-55
2022/01/22 22:33:39;;;;;;;;;55.25;44.50;;;;;7.23;65.93;102854.34;5077057;28;45501;-56
2022/01/22 22:36:05;;;;;;;;;56.00;43.50;;;;;7.18;65.87;102842.94;5076852;28;45438;-56
2022/01/22 22:38:30;;;;;;;;;42.25;37.75;;;;;7.20;65.47;102846.44;5076032;28;45462;-55
2022/01/22 22:40:57;;;;;;;;;52.00;43.75;;;;;7.17;65.41;102838.53;5076447;27;45383;-52
2022/01/22 22:43:22;;;;;;;;;55.00;45.00;;;;;7.10;65.42;102820.13;5076899;28;45370;-54
2022/01/22 22:45:52;;;;;;;;;58.25;45.50;;;;;7.24;65.44;102840.38;5076559;27;45364;-55
2022/01/22 22:48:17;;;;;;;;;58.25;44.00;;;;;7.24;65.79;102842.13;5076134;28;46452;-55
2022/01/22 22:50:42;;;;;;;;;57.50;45.25;;;;;7.24;65.72;102839.50;5076095;28;45371;-56
2022/01/22 22:53:08;;;;;;;;;50.50;44.50;;;;;7.15;65.59;102835.03;5076655;27;45415;-53
2022/01/22 22:55:33;;;;;;;;;54.25;44.50;;;;;7.12;65.70;102828.84;5076567;28;45542;-55
2022/01/22 22:58:00;;;;;;;;;60.25;48.00;;;;;7.10;65.98;102828.84;5058099;28;47773;-50
2022/01/22 23:00:44;;;;;;;;;60.25;48.00;;;;;7.17;66.19;102833.28;5075752;27;47289;-55
2022/01/22 23:03:12;;;;;;;;;59.00;48.50;;;;;7.20;65.52;102833.38;5076612;28;45489;-57
2022/01/22 23:05:39;;;;;;;;;53.75;45.75;;;;;7.21;66.18;102814.19;5058188;28;45485;-54
2022/01/22 23:08:04;;;;;;;;;43.50;38.75;;;;;7.19;65.94;102823.72;5076337;28;45561;-57
2022/01/22 23:10:30;;;;;;;;;53.75;44.00;;;;;7.19;65.40;102831.59;5075769;28;45457;-55
2022/01/22 23:12:56;;;;;;;;;54.75;44.50;;;;;7.15;65.81;102819.34;5076638;28;45508;-55
2022/01/22 23:15:21;;;;;;;;;49.25;41.00;;;;;7.13;66.01;102813.19;5057845;28;45400;-55
2022/01/22 23:25:55;;;;;;;;;46.75;42.75;;;;;7.15;66.31;102819.34;5037771;27;45515;-53
2022/01/22 23:28:38;;;;;;;;;55.75;46.00;;;;;7.17;66.27;102821.94;5075742;28;46187;-53
2022/01/22 23:31:11;;;;;;;;;50.50;43.50;;;;;7.17;65.82;102817.59;5075914;28;45309;-53
2022/01/22 23:33:42;;;;;;;;;56.00;44.50;;;;;7.23;65.52;102819.44;5075412;28;45359;-55
2022/01/22 23:46:08;;;;;;;;;54.00;39.50;;;;;7.27;65.95;102818.63;5075290;28;45389;-53
2022/01/22 23:55:20;;;;;;;;;50.00;43.00;;;;;7.18;65.94;102805.41;5075268;28;45430;-56
2022/01/22 23:58:03;;;;;;;;;45.50;39.25;;;;;7.23;65.82;102801.13;5075771;28;45480;-54
